Time;durP1;ratioP1;P1;durP2;ratioP2;P2;SDS_P1;SDS_P2;PMS_P1;PMS_P2;Temp;Humidity;BMP_temperature;BMP_pressure;BME280_temperature;BME280_humidity;BME280_pressure;Samples;Min_cycle;Max_cycle;Signal;HPM_P1;HPM_P2
2023/09/29 00:01:44;;;;;;;11.48;4.05;;;16.90;94.80;;;;;;5067714;28;20032;-85
2023/09/29 00:04:10;;;;;;;15.45;3.50;;;16.90;94.70;;;;;;5068901;28;20043;-86
2023/09/29 00:06:36;;;;;;;12.27;3.08;;;16.90;94.80;;;;;;5067637;28;20033;-83
2023/09/29 00:09:06;;;;;;;7.70;3.10;;;16.90;94.80;;;;;;5039891;28;20030;-85
2023/09/29 00:11:33;;;;;;;5.63;3.05;;;16.80;94.70;;;;;;5029244;28;20454;-83
2023/09/29 00:13:59;;;;;;;10.60;3.90;;;16.80;94.60;;;;;;5029404;28;20013;-85
2023/09/29 00:16:24;;;;;;;6.63;3.65;;;16.80;94.60;;;;;;5028111;28;20052;-82
2023/09/29 00:18:50;;;;;;;12.30;3.10;;;16.80;94.80;;;;;;5029101;28;20048;-84
2023/09/29 00:21:16;;;;;;;10.73;3.78;;;16.70;94.90;;;;;;5027939;28;20031;-85
2023/09/29 00:23:41;;;;;;;6.15;3.47;;;16.70;95.30;;;;;;5027540;28;20498;-84
2023/09/29 00:26:07;;;;;;;11.25;3.50;;;16.70;95.40;;;;;;5027864;28;20364;-84
2023/09/29 00:28:33;;;;;;;12.38;3.28;;;16.60;95.10;;;;;;5027883;28;20037;-86
2023/09/29 00:30:59;;;;;;;5.88;3.63;;;16.60;94.70;;;;;;5027921;28;20509;-85
2023/09/29 00:33:25;;;;;;;9.75;3.63;;;16.70;94.30;;;;;;5032286;28;20091;-85
2023/09/29 00:35:51;;;;;;;10.65;3.25;;;16.70;94.40;;;;;;5032547;28;20029;-85
2023/09/29 00:38:16;;;;;;;8.15;3.42;;;16.70;94.20;;;;;;5032371;28;20033;-84
2023/09/29 00:40:42;;;;;;;8.32;3.53;;;16.70;94.00;;;;;;5031693;28;20026;-87
2023/09/29 00:43:08;;;;;;;8.18;3.63;;;16.70;94.10;;;;;;5031316;28;20045;-86
2023/09/29 00:45:35;;;;;;;9.07;3.67;;;16.70;94.30;;;;;;5032072;28;20479;-87
2023/09/29 00:48:07;;;;;;;14.45;3.63;;;16.70;94.40;;;;;;5030846;28;20033;-86
2023/09/29 00:50:34;;;;;;;9.68;3.40;;;16.60;94.50;;;;;;5032523;28;20524;-85
2023/09/29 00:53:06;;;;;;;7.55;3.25;;;16.60;94.40;;;;;;5032261;28;20055;-86
2023/09/29 00:55:33;;;;;;;6.75;3.85;;;16.60;94.40;;;;;;5033571;28;20035;-86
2023/09/29 00:57:59;;;;;;;10.98;4.47;;;16.60;94.30;;;;;;5032040;28;20457;-88
2023/09/29 01:02:58;;;;;;;12.50;3.70;;;16.60;94.20;;;;;;5032648;28;20124;-86
2023/09/29 01:05:25;;;;;;;11.30;3.33;;;16.60;94.20;;;;;;5032471;28;20057;-86
2023/09/29 01:07:51;;;;;;;8.30;3.38;;;16.50;94.30;;;;;;5033958;28;20022;-86
2023/09/29 01:10:20;;;;;;;14.65;3.05;;;16.50;94.60;;;;;;5037741;28;20025;-87
2023/09/29 01:12:50;;;;;;;11.63;3.63;;;16.50;94.70;;;;;;5035071;28;20103;-85
2023/09/29 01:15:17;;;;;;;9.27;3.63;;;16.40;94.90;;;;;;5032527;28;20391;-85
2023/09/29 01:17:44;;;;;;;5.60;3.40;;;16.40;94.90;;;;;;5031159;28;20522;-86
2023/09/29 01:20:27;;;;;;;5.80;3.38;;;16.40;95.10;;;;;;5030833;28;20033;-86
2023/09/29 01:22:53;;;;;;;4.60;2.83;;;16.40;95.00;;;;;;5032128;28;20116;-87
2023/09/29 01:25:19;;;;;;;8.40;3.97;;;16.30;95.10;;;;;;5031221;28;20039;-88
2023/09/29 01:27:48;;;;;;;6.05;3.42;;;16.30;95.20;;;;;;5032766;28;20029;-86
2023/09/29 01:30:16;;;;;;;5.97;3.53;;;16.30;95.30;;;;;;5031474;28;20041;-88
2023/09/29 01:32:42;;;;;;;8.45;3.72;;;16.30;95.60;;;;;;5032150;28;20037;-86
2023/09/29 01:35:10;;;;;;;9.98;3.30;;;16.30;95.80;;;;;;5030698;28;20029;-86
2023/09/29 01:37:38;;;;;;;16.05;4.00;;;16.20;95.90;;;;;;5031101;28;20033;-87
2023/09/29 01:40:06;;;;;;;8.75;3.60;;;16.30;96.10;;;;;;5031878;28;20025;-87
2023/09/29 01:42:32;;;;;;;8.50;3.50;;;16.20;96.30;;;;;;5030618;28;20030;-86
2023/09/29 01:44:57;;;;;;;8.45;3.88;;;16.20;96.50;;;;;;5030235;28;20057;-87
2023/09/29 01:47:24;;;;;;;6.85;3.40;;;16.10;97.00;;;;;;5032361;28;20032;-87
2023/09/29 01:49:49;;;;;;;6.05;3.95;;;16.00;97.30;;;;;;5030742;28;20033;-87
2023/09/29 01:52:15;;;;;;;9.98;4.00;;;16.00;97.80;;;;;;5031912;28;20033;-87
2023/09/29 01:54:41;;;;;;;10.77;5.53;;;15.90;98.10;;;;;;5030960;28;20148;-85
2023/09/29 01:57:06;;;;;;;9.40;3.38;;;15.80;98.50;;;;;;5030920;28;20521;-87
2023/09/29 01:59:32;;;;;;;11.13;3.75;;;15.80;98.80;;;;;;5031443;28;20371;-85
2023/09/29 02:01:58;;;;;;;5.85;3.78;;;15.80;99.00;;;;;;5030978;28;20512;-86
2023/09/29 02:04:23;;;;;;;8.95;4.47;;;15.70;99.30;;;;;;5031165;28;20163;-88
2023/09/29 02:06:49;;;;;;;10.52;4.00;;;15.70;99.70;;;;;;5032397;28;20111;-88
2023/09/29 02:09:16;;;;;;;7.93;3.95;;;15.70;99.90;;;;;;5031283;28;20037;-88
2023/09/29 02:11:45;;;;;;;10.50;3.90;;;15.60;99.90;;;;;;5031145;28;20033;-87
2023/09/29 02:14:11;;;;;;;8.65;3.70;;;15.70;99.90;;;;;;5030649;28;20030;-88
2023/09/29 02:16:37;;;;;;;7.07;3.72;;;15.70;99.90;;;;;;5030354;28;20533;-89
2023/09/29 02:19:03;;;;;;;;;;;15.70;99.90;;;;;;5032606;28;20026;-87
2023/09/29 02:21:31;;;;;;;6.85;3.58;;;15.70;99.90;;;;;;5031969;28;19909;-89
2023/09/29 02:23:57;;;;;;;11.45;3.75;;;15.60;99.90;;;;;;5031862;28;20052;-88
2023/09/29 02:26:23;;;;;;;7.72;3.83;;;15.60;99.90;;;;;;5031455;28;20030;-85
2023/09/29 02:28:49;;;;;;;7.72;3.83;;;15.60;99.90;;;;;;5029629;28;20028;-85
2023/09/29 02:31:15;;;;;;;6.72;3.90;;;15.60;99.90;;;;;;5030138;28;20025;-85
2023/09/29 02:33:41;;;;;;;8.55;4.43;;;15.50;99.90;;;;;;5029680;28;20030;-85
2023/09/29 02:36:08;;;;;;;8.18;4.32;;;15.50;99.90;;;;;;5029442;28;20450;-83
2023/09/29 02:38:34;;;;;;;6.53;3.55;;;15.60;99.90;;;;;;5031457;28;20017;-87
2023/09/29 02:41:00;;;;;;;12.05;3.50;;;15.60;99.90;;;;;;5031471;28;20024;-86
2023/09/29 02:43:30;;;;;;;16.35;5.20;;;15.60;99.90;;;;;;5031770;28;20033;-85
2023/09/29 02:45:59;;;;;;;9.68;3.80;;;15.60;99.90;;;;;;5030517;28;20494;-85
2023/09/29 02:48:25;;;;;;;5.18;4.15;;;15.50;99.90;;;;;;5030297;28;20033;-88
2023/09/29 02:50:50;;;;;;;8.35;4.28;;;15.50;99.90;;;;;;5029911;28;20108;-86
2023/09/29 02:53:16;;;;;;;9.55;4.03;;;15.50;99.90;;;;;;5029687;28;20115;-84
2023/09/29 02:55:45;;;;;;;9.68;4.07;;;15.50;99.90;;;;;;5033189;28;20025;-87
2023/09/29 02:58:12;;;;;;;7.68;3.72;;;15.60;99.90;;;;;;5029669;28;20030;-87
2023/09/29 03:00:39;;;;;;;9.65;3.88;;;15.50;99.90;;;;;;5031084;28;20105;-87
2023/09/29 03:03:06;;;;;;;9.48;3.80;;;15.50;99.90;;;;;;5031000;28;20064;-87
2023/09/29 03:05:35;;;;;;;7.82;3.78;;;15.50;99.90;;;;;;5029111;28;20025;-86
2023/09/29 03:08:01;;;;;;;10.15;4.18;;;15.60;99.90;;;;;;5029805;28;20040;-88
2023/09/29 03:10:30;;;;;;;14.50;4.20;;;15.50;99.90;;;;;;5029221;28;20506;-88
2023/09/29 03:12:56;;;;;;;9.60;3.95;;;15.50;99.90;;;;;;5029197;28;20017;-88
2023/09/29 03:15:22;;;;;;;9.35;3.60;;;15.50;99.90;;;;;;5029459;28;20520;-87
2023/09/29 03:17:48;;;;;;;7.88;3.38;;;15.50;99.90;;;;;;5030380;28;20065;-88
2023/09/29 03:20:16;;;;;;;7.65;3.95;;;15.50;99.90;;;;;;5028519;28;20029;-87
2023/09/29 03:22:44;;;;;;;5.97;3.65;;;15.50;99.90;;;;;;5028508;28;20545;-88
2023/09/29 03:25:10;;;;;;;12.70;4.25;;;15.50;99.90;;;;;;5029314;28;20088;-88
2023/09/29 03:27:37;;;;;;;8.80;4.25;;;15.50;99.90;;;;;;5029270;28;20475;-85
2023/09/29 03:30:08;;;;;;;8.10;4.45;;;15.50;99.90;;;;;;5029941;28;20495;-86
2023/09/29 03:32:34;;;;;;;6.22;3.50;;;15.50;99.90;;;;;;5029882;28;20108;-87
2023/09/29 03:35:00;;;;;;;7.38;3.78;;;15.40;99.90;;;;;;5029821;28;20641;-87
2023/09/29 03:37:29;;;;;;;8.88;4.07;;;15.40;99.90;;;;;;5029838;28;20026;-87
2023/09/29 03:39:55;;;;;;;5.53;3.90;;;15.40;99.90;;;;;;5030130;28;20029;-87
2023/09/29 03:42:21;;;;;;;15.90;4.00;;;15.40;99.90;;;;;;5029898;28;20053;-85
2023/09/29 03:44:47;;;;;;;10.20;5.13;;;15.40;99.90;;;;;;5029960;28;20110;-84
2023/09/29 03:47:13;;;;;;;12.77;4.40;;;15.40;99.90;;;;;;5028675;28;20032;-87
2023/09/29 03:49:39;;;;;;;8.60;3.83;;;15.40;99.90;;;;;;5029623;28;20100;-86
2023/09/29 03:52:08;;;;;;;10.68;3.45;;;15.40;99.90;;;;;;5029926;28;20036;-83
2023/09/29 03:54:34;;;;;;;13.95;4.05;;;15.40;99.90;;;;;;5029816;28;20033;-87
2023/09/29 03:57:03;;;;;;;6.45;3.65;;;15.40;99.90;;;;;;5029160;28;20390;-86
2023/09/29 03:59:29;;;;;;;5.75;3.15;;;15.40;99.90;;;;;;5029701;28;20033;-87
2023/09/29 04:01:55;;;;;;;5.65;3.53;;;15.40;99.90;;;;;;5028592;28;20187;-87
2023/09/29 04:04:21;;;;;;;12.10;4.35;;;15.40;99.90;;;;;;5028519;28;20079;-86
2023/09/29 04:06:47;;;;;;;7.43;4.28;;;15.40;99.90;;;;;;5029246;28;20033;-87
2023/09/29 04:09:12;;;;;;;;;;;15.40;99.90;;;;;;5032686;28;20931;-86
2023/09/29 04:11:40;;;;;;;6.25;3.92;;;15.40;99.90;;;;;;5033399;28;19905;-87
2023/09/29 04:14:06;;;;;;;10.70;4.38;;;15.40;99.90;;;;;;5032218;28;20053;-84
2023/09/29 04:16:31;;;;;;;12.90;3.90;;;15.30;99.90;;;;;;5033022;28;20484;-87
2023/09/29 04:18:57;;;;;;;10.63;4.05;;;15.40;99.90;;;;;;5032654;28;20044;-87
2023/09/29 04:21:22;;;;;;;;;;;15.30;99.90;;;;;;5032520;28;20025;-84
2023/09/29 04:23:48;;;;;;;11.35;4.20;;;15.40;99.90;;;;;;5032304;28;19920;-85
2023/09/29 04:26:22;;;;;;;7.43;3.45;;;15.40;99.90;;;;;;5032682;28;20032;-86
2023/09/29 04:28:50;;;;;;;9.50;4.25;;;15.40;99.90;;;;;;5032272;28;20043;-86
2023/09/29 04:31:16;;;;;;;12.90;5.00;;;15.40;99.90;;;;;;5033230;28;20152;-88
2023/09/29 04:33:43;;;;;;;5.80;3.50;;;15.40;99.90;;;;;;5031396;28;20128;-88
2023/09/29 04:36:08;;;;;;;11.05;4.30;;;15.40;99.90;;;;;;5036457;28;20036;-86
2023/09/29 04:38:35;;;;;;;8.48;3.90;;;15.30;99.90;;;;;;5035942;28;20030;-87
2023/09/29 04:41:01;;;;;;;11.70;4.05;;;15.30;99.90;;;;;;5033560;28;20032;-88
2023/09/29 04:43:28;;;;;;;11.07;3.85;;;15.40;99.90;;;;;;5033465;28;20037;-85
2023/09/29 04:45:55;;;;;;;8.85;3.95;;;15.40;99.90;;;;;;5032766;28;20028;-84
2023/09/29 04:48:21;;;;;;;8.35;4.38;;;15.40;99.90;;;;;;5031254;28;20571;-82
2023/09/29 04:50:46;;;;;;;7.97;4.20;;;15.40;99.90;;;;;;5030699;28;20029;-84
2023/09/29 04:53:12;;;;;;;9.82;4.28;;;15.50;99.90;;;;;;5031703;28;20017;-88
2023/09/29 04:55:38;;;;;;;7.70;3.95;;;15.50;99.90;;;;;;5031965;28;20080;-87
2023/09/29 04:58:04;;;;;;;10.50;4.57;;;15.50;99.90;;;;;;5032319;28;20490;-87
2023/09/29 05:00:30;;;;;;;16.25;5.43;;;15.50;99.90;;;;;;5031066;28;20021;-86
2023/09/29 05:02:55;;;;;;;9.02;4.32;;;15.50;99.90;;;;;;5031554;28;20025;-87
2023/09/29 05:05:21;;;;;;;;;;;15.50;99.90;;;;;;5033088;28;20083;-87
2023/09/29 05:07:47;;;;;;;11.00;4.13;;;15.50;99.90;;;;;;5031270;28;19917;-87
2023/09/29 05:10:13;;;;;;;;;;;15.60;99.90;;;;;;5033044;28;20068;-86
2023/09/29 05:12:41;;;;;;;7.07;3.92;;;15.60;99.90;;;;;;5032444;28;19909;-87
2023/09/29 05:15:08;;;;;;;12.18;4.75;;;15.60;99.90;;;;;;5031253;28;20071;-85
2023/09/29 05:17:34;;;;;;;9.82;4.18;;;15.60;99.90;;;;;;5030627;28;20056;-84
2023/09/29 05:20:00;;;;;;;12.05;4.60;;;15.70;99.90;;;;;;5030788;28;20033;-87
2023/09/29 05:22:25;;;;;;;7.68;4.40;;;15.70;99.90;;;;;;5031515;28;20433;-82
2023/09/29 05:24:53;;;;;;;12.82;4.72;;;15.80;99.90;;;;;;5030271;28;20053;-86
2023/09/29 05:27:19;;;;;;;8.38;3.92;;;15.80;99.90;;;;;;5030514;28;20486;-86
2023/09/29 05:29:45;;;;;;;7.15;4.15;;;15.90;99.90;;;;;;5030266;28;20116;-85
2023/09/29 05:32:11;;;;;;;8.88;3.83;;;15.90;99.90;;;;;;5030049;28;20112;-81
2023/09/29 05:34:36;;;;;;;11.10;4.43;;;15.90;99.90;;;;;;5030924;28;20022;-83
2023/09/29 05:37:02;;;;;;;10.10;4.53;;;16.00;99.90;;;;;;5031707;28;20021;-87
2023/09/29 05:39:28;;;;;;;8.23;4.10;;;16.10;99.90;;;;;;5030489;28;20084;-84
2023/09/29 05:41:53;;;;;;;11.20;4.50;;;16.20;99.90;;;;;;5031335;28;20096;-86
2023/09/29 05:44:19;;;;;;;9.10;3.95;;;16.30;99.90;;;;;;5031709;28;20037;-85
2023/09/29 05:46:45;;;;;;;16.33;4.93;;;16.40;99.90;;;;;;5030276;28;20036;-86
2023/09/29 05:49:11;;;;;;;7.30;4.15;;;16.40;99.90;;;;;;5030442;28;20025;-87
2023/09/29 05:51:37;;;;;;;11.48;3.88;;;16.50;99.90;;;;;;5030712;28;20029;-86
2023/09/29 05:54:03;;;;;;;7.82;4.57;;;16.60;99.90;;;;;;5031877;28;20470;-87
2023/09/29 05:56:31;;;;;;;8.02;4.38;;;16.70;99.90;;;;;;5031027;28;20057;-84
2023/09/29 05:58:57;;;;;;;12.32;4.68;;;16.80;99.90;;;;;;5030728;28;20049;-85
2023/09/29 06:01:25;;;;;;;16.63;4.78;;;16.90;99.90;;;;;;5030756;28;20032;-86
2023/09/29 06:03:53;;;;;;;7.22;4.18;;;17.10;99.90;;;;;;5029637;28;20043;-86
2023/09/29 06:06:19;;;;;;;11.90;4.88;;;17.20;99.90;;;;;;5029973;28;20678;-84
2023/09/29 06:08:45;;;;;;;15.55;5.28;;;17.40;99.90;;;;;;5030582;28;20096;-84
2023/09/29 06:11:12;;;;;;;8.88;4.30;;;17.60;99.90;;;;;;5029204;28;20033;-84
2023/09/29 06:13:38;;;;;;;11.73;4.22;;;17.80;99.90;;;;;;5029105;28;20037;-84
2023/09/29 06:16:05;;;;;;;12.88;4.05;;;18.10;99.90;;;;;;5029066;28;20064;-84
2023/09/29 06:18:31;;;;;;;10.05;4.18;;;18.50;99.90;;;;;;5030351;28;20048;-84
2023/09/29 06:20:57;;;;;;;8.90;3.90;;;19.00;99.90;;;;;;5029449;28;20107;-84
2023/09/29 06:23:23;;;;;;;15.50;4.57;;;19.70;98.00;;;;;;5030820;28;20087;-84
2023/09/29 06:25:56;;;;;;;9.35;4.10;;;20.40;96.90;;;;;;5030767;28;20030;-84
2023/09/29 06:28:24;;;;;;;7.57;3.63;;;21.20;94.60;;;;;;5030013;28;20057;-83
2023/09/29 06:30:55;;;;;;;13.27;3.50;;;22.10;91.20;;;;;;5036113;28;20044;-82
2023/09/29 06:33:21;;;;;;;10.63;3.55;;;22.90;83.80;;;;;;5029110;28;20025;-84
2023/09/29 06:35:47;;;;;;;13.90;3.97;;;23.60;77.60;;;;;;5028020;28;20029;-82
2023/09/29 06:38:14;;;;;;;9.73;3.67;;;24.30;72.60;;;;;;5047831;28;20367;-83
2023/09/29 06:40:40;;;;;;;10.55;3.72;;;24.80;68.90;;;;;;5049020;28;20083;-80
2023/09/29 06:43:05;;;;;;;15.95;3.65;;;25.20;65.90;;;;;;5049216;28;20037;-81
2023/09/29 06:45:32;;;;;;;20.23;3.20;;;25.70;62.60;;;;;;5045965;28;20103;-80
2023/09/29 06:47:58;;;;;;;9.82;3.58;;;26.20;60.20;;;;;;5049396;28;20035;-84
2023/09/29 06:50:23;;;;;;;6.05;3.25;;;26.50;58.10;;;;;;5048086;28;20115;-82
2023/09/29 06:52:49;;;;;;;6.05;3.20;;;26.80;57.40;;;;;;5049447;28;20056;-82
2023/09/29 06:55:15;;;;;;;14.10;3.50;;;27.10;56.20;;;;;;5048275;28;20543;-82
2023/09/29 06:57:41;;;;;;;9.20;3.33;;;27.40;55.50;;;;;;5049241;28;20401;-83
2023/09/29 07:00:09;;;;;;;11.15;3.88;;;27.70;54.10;;;;;;5049589;28;20048;-81
2023/09/29 07:02:35;;;;;;;18.75;4.13;;;28.10;52.50;;;;;;5048879;28;20025;-83
2023/09/29 07:05:01;;;;;;;11.38;3.60;;;28.20;52.50;;;;;;5048490;28;20070;-78
2023/09/29 07:07:26;;;;;;;11.32;3.50;;;28.40;51.70;;;;;;5044397;28;20029;-81
2023/09/29 07:09:52;;;;;;;15.90;3.85;;;28.10;51.70;;;;;;5049074;28;20063;-82
2023/09/29 07:12:18;;;;;;;10.18;3.58;;;27.90;51.70;;;;;;5047860;28;20028;-81
2023/09/29 07:14:43;;;;;;;16.90;3.50;;;27.40;52.40;;;;;;5048030;28;20136;-82
2023/09/29 07:17:09;;;;;;;10.20;3.35;;;27.40;52.90;;;;;;5047529;28;20068;-82
2023/09/29 07:19:35;;;;;;;11.07;3.45;;;27.30;52.50;;;;;;5048314;28;20124;-83
2023/09/29 07:22:01;;;;;;;9.70;4.22;;;27.10;53.20;;;;;;5049077;28;20025;-82
2023/09/29 07:24:27;;;;;;;12.68;3.97;;;27.10;53.70;;;;;;5048844;28;20075;-82
2023/09/29 07:26:53;;;;;;;14.32;4.18;;;26.70;52.80;;;;;;5048765;28;20052;-82
2023/09/29 07:29:18;;;;;;;12.10;3.92;;;26.60;54.00;;;;;;5048890;28;20033;-82
2023/09/29 07:31:48;;;;;;;12.23;4.28;;;26.70;54.30;;;;;;5049135;28;20075;-83
2023/09/29 07:34:17;;;;;;;10.15;3.88;;;26.90;53.20;;;;;;5047644;28;20036;-83
2023/09/29 07:36:44;;;;;;;17.35;4.18;;;26.90;52.50;;;;;;5049010;28;20014;-83
2023/09/29 07:39:17;;;;;;;12.88;4.00;;;26.70;53.40;;;;;;5047748;28;20082;-82
2023/09/29 07:41:43;;;;;;;13.85;4.03;;;26.30;52.50;;;;;;5051543;28;20017;-83
2023/09/29 07:44:09;;;;;;;11.40;3.78;;;25.90;53.70;;;;;;5052894;28;20033;-83
2023/09/29 07:46:36;;;;;;;17.83;4.40;;;25.70;54.60;;;;;;5051455;28;20048;-83
2023/09/29 07:49:02;;;;;;;12.88;4.32;;;25.70;55.50;;;;;;5052836;28;20549;-83
2023/09/29 07:51:28;;;;;;;12.60;3.80;;;25.50;55.60;;;;;;5051506;28;20025;-82
2023/09/29 07:53:54;;;;;;;14.73;4.82;;;25.60;56.40;;;;;;5052881;28;20036;-84
2023/09/29 07:56:20;;;;;;;9.07;3.83;;;25.70;56.40;;;;;;5052824;28;20028;-83
2023/09/29 07:58:46;;;;;;;13.65;3.97;;;25.60;55.60;;;;;;5052776;28;20482;-83
2023/09/29 08:01:11;;;;;;;9.55;4.38;;;25.70;55.50;;;;;;5051521;28;20033;-83
2023/09/29 08:03:37;;;;;;;17.20;3.88;;;25.90;55.70;;;;;;5051485;28;20045;-83
2023/09/29 08:06:04;;;;;;;13.27;3.58;;;26.40;55.60;;;;;;5051769;28;20059;-82
2023/09/29 08:08:29;;;;;;;10.60;4.07;;;26.80;54.90;;;;;;5052733;28;20068;-82
2023/09/29 08:10:55;;;;;;;13.68;3.92;;;27.20;54.40;;;;;;5051331;28;20075;-84
2023/09/29 08:13:23;;;;;;;10.40;4.07;;;27.60;53.80;;;;;;5052601;28;20033;-81
2023/09/29 08:15:49;;;;;;;13.38;3.67;;;28.20;51.90;;;;;;5051071;28;20067;-82
2023/09/29 08:18:17;;;;;;;9.68;3.85;;;28.60;50.30;;;;;;5051486;28;20556;-82
2023/09/29 08:20:43;;;;;;;10.35;4.15;;;28.70;49.50;;;;;;5052723;28;20449;-80
2023/09/29 08:23:09;;;;;;;15.32;3.35;;;29.00;49.60;;;;;;5050864;28;20084;-81
2023/09/29 08:25:34;;;;;;;17.52;3.97;;;29.30;49.00;;;;;;5052062;28;20433;-82
2023/09/29 08:28:02;;;;;;;18.02;4.63;;;29.50;48.60;;;;;;5047482;28;20133;-81
2023/09/29 08:30:28;;;;;;;14.35;4.88;;;29.60;47.50;;;;;;5046244;28;20041;-82
2023/09/29 08:32:54;;;;;;;7.90;3.80;;;29.30;48.50;;;;;;5051887;28;20021;-82
2023/09/29 08:35:20;;;;;;;24.77;4.38;;;29.50;48.00;;;;;;5051841;28;20029;-82
2023/09/29 08:37:46;;;;;;;21.67;4.20;;;29.70;46.70;;;;;;5050761;28;20071;-83
2023/09/29 08:40:14;;;;;;;15.55;5.13;;;29.80;47.20;;;;;;5052001;28;20021;-82
2023/09/29 08:42:45;;;;;;;11.52;3.97;;;29.90;47.20;;;;;;5051941;28;20037;-83
2023/09/29 08:45:11;;;;;;;17.13;5.20;;;30.30;46.40;;;;;;5051166;28;20056;-84
2023/09/29 08:47:40;;;;;;;15.50;4.50;;;30.20;45.00;;;;;;5051941;28;20037;-83
2023/09/29 08:50:07;;;;;;;24.35;12.25;;;30.20;46.60;;;;;;5052004;28;20027;-83
2023/09/29 08:52:33;;;;;;;12.30;4.05;;;30.50;45.20;;;;;;5049557;28;20032;-84
2023/09/29 08:54:59;;;;;;;13.80;4.18;;;30.50;44.70;;;;;;5051872;28;20402;-84
2023/09/29 08:57:26;;;;;;;9.10;4.57;;;30.50;44.30;;;;;;5050563;28;20025;-82
2023/09/29 08:59:54;;;;;;;7.95;3.83;;;30.40;44.30;;;;;;5051649;28;20577;-83
2023/09/29 09:02:21;;;;;;;12.20;3.78;;;30.10;43.40;;;;;;5050355;28;20563;-82
2023/09/29 09:04:47;;;;;;;11.35;4.13;;;30.00;43.60;;;;;;5051709;28;20052;-82
2023/09/29 09:07:14;;;;;;;8.40;4.10;;;30.30;43.40;;;;;;5051678;28;20025;-83
2023/09/29 09:09:50;;;;;;;6.50;3.38;;;30.40;44.10;;;;;;5051512;28;20036;-83
2023/09/29 09:12:17;;;;;;;10.02;4.03;;;30.60;42.90;;;;;;5051348;28;20044;-83
2023/09/29 09:14:44;;;;;;;11.43;3.97;;;30.80;41.90;;;;;;5051499;28;20037;-83
2023/09/29 09:17:11;;;;;;;12.55;4.43;;;30.80;41.60;;;;;;5051118;28;20037;-82
2023/09/29 09:19:45;;;;;;;14.90;3.97;;;30.80;42.20;;;;;;5051225;28;20032;-83
2023/09/29 09:22:14;;;;;;;11.45;3.10;;;31.10;42.40;;;;;;5050209;28;20032;-83
2023/09/29 09:24:40;;;;;;;8.65;3.70;;;31.30;41.30;;;;;;5047549;28;20046;-82
2023/09/29 09:27:08;;;;;;;8.68;4.20;;;31.30;41.40;;;;;;5040070;28;20021;-82
2023/09/29 09:29:44;;;;;;;9.02;4.00;;;31.10;41.50;;;;;;5039931;28;20059;-83
2023/09/29 09:32:14;;;;;;;9.82;3.67;;;31.00;41.60;;;;;;5041493;28;20079;-83
2023/09/29 09:34:41;;;;;;;8.52;3.47;;;31.10;42.00;;;;;;5041667;28;20025;-82
2023/09/29 09:37:11;;;;;;;20.83;4.93;;;31.40;43.20;;;;;;5037761;28;20501;-83
2023/09/29 09:39:38;;;;;;;8.10;3.67;;;31.60;42.10;;;;;;5041453;28;20405;-83
2023/09/29 09:42:05;;;;;;;17.42;4.68;;;31.90;42.00;;;;;;5049512;28;20498;-83
2023/09/29 09:44:32;;;;;;;16.77;4.22;;;32.10;41.10;;;;;;5050710;28;20076;-83
2023/09/29 09:47:03;;;;;;;13.68;4.18;;;32.00;40.00;;;;;;5049578;28;20505;-83
2023/09/29 09:49:50;;;;;;;9.82;4.22;;;31.90;40.50;;;;;;5050661;28;20029;-82
2023/09/29 09:52:34;;;;;;;10.50;3.75;;;31.90;40.70;;;;;;5048931;28;20520;-83
2023/09/29 09:55:11;;;;;;;12.25;4.40;;;32.30;40.50;;;;;;5049328;28;20025;-81
2023/09/29 09:57:41;;;;;;;10.23;4.47;;;32.50;39.90;;;;;;5050728;28;20036;-84
2023/09/29 10:00:10;;;;;;;13.15;4.50;;;32.90;39.00;;;;;;5050783;28;20025;-82
2023/09/29 10:02:48;;;;;;;15.32;4.97;;;32.70;38.80;;;;;;5050182;28;20056;-84
2023/09/29 10:05:16;;;;;;;16.95;4.97;;;32.70;38.80;;;;;;5049032;28;20029;-83
2023/09/29 10:08:10;;;;;;;12.88;5.10;;;32.50;38.30;;;;;;5050130;28;20040;-82
2023/09/29 10:10:43;;;;;;;15.25;5.25;;;32.30;38.90;;;;;;5049263;28;20041;-84
2023/09/29 10:13:11;;;;;;;13.10;4.60;;;32.50;39.10;;;;;;5048809;28;20025;-84
2023/09/29 10:15:38;;;;;;;16.27;5.30;;;32.90;37.90;;;;;;5050049;28;20075;-82
2023/09/29 10:18:19;;;;;;;16.70;4.90;;;32.70;38.40;;;;;;5048959;28;20511;-83
2023/09/29 10:21:00;;;;;;;14.32;4.05;;;32.90;38.20;;;;;;5050212;28;20041;-82
2023/09/29 10:23:26;;;;;;;15.02;4.50;;;32.50;38.30;;;;;;5050416;28;20402;-84
2023/09/29 10:26:00;;;;;;;9.90;4.75;;;31.80;39.40;;;;;;5049045;28;20028;-81
2023/09/29 10:28:37;;;;;;;14.95;4.05;;;30.80;40.90;;;;;;5050242;28;20108;-83
2023/09/29 10:31:09;;;;;;;9.68;4.38;;;30.00;42.20;;;;;;5050131;28;20506;-83
2023/09/29 10:33:53;;;;;;;9.20;4.22;;;29.50;43.20;;;;;;5049879;28;20076;-84
2023/09/29 10:36:20;;;;;;;11.75;4.72;;;29.20;43.30;;;;;;5030496;28;20025;-83
2023/09/29 10:38:47;;;;;;;11.20;4.15;;;28.70;43.70;;;;;;5028748;28;20498;-82
2023/09/29 10:41:15;;;;;;;10.73;4.70;;;28.40;45.00;;;;;;5029060;28;20483;-83
2023/09/29 10:43:42;;;;;;;10.68;4.85;;;28.00;44.00;;;;;;5028601;28;20072;-82
2023/09/29 10:46:09;;;;;;;10.68;4.25;;;27.70;45.70;;;;;;5030000;28;20503;-82
2023/09/29 10:48:44;;;;;;;15.73;4.85;;;27.60;45.90;;;;;;5029821;28;20137;-81
2023/09/29 10:51:10;;;;;;;17.88;4.47;;;27.60;45.40;;;;;;5029842;28;20021;-83
2023/09/29 10:53:36;;;;;;;14.75;4.07;;;27.50;45.20;;;;;;5029711;28;20494;-83
2023/09/29 10:56:03;;;;;;;7.63;3.72;;;27.40;45.50;;;;;;5029964;28;20032;-82
2023/09/29 10:58:37;;;;;;;19.90;4.15;;;27.40;46.80;;;;;;5030125;28;20080;-83
2023/09/29 11:01:02;;;;;;;8.25;3.80;;;27.40;47.20;;;;;;5029865;28;20021;-83
2023/09/29 11:03:30;;;;;;;23.33;4.00;;;27.40;46.40;;;;;;5028669;28;20034;-81
2023/09/29 11:06:08;;;;;;;16.42;5.07;;;27.40;46.50;;;;;;5028702;28;20029;-82
2023/09/29 11:08:38;;;;;;;12.65;3.60;;;27.40;47.10;;;;;;5028746;28;20230;-79
2023/09/29 11:11:06;;;;;;;9.43;3.70;;;27.40;46.70;;;;;;5030211;28;20136;-80
2023/09/29 11:13:31;;;;;;;9.40;3.58;;;27.40;45.70;;;;;;5029567;28;20522;-81
2023/09/29 11:15:59;;;;;;;7.68;3.92;;;27.30;45.20;;;;;;5027869;28;20057;-80
2023/09/29 11:18:35;;;;;;;14.63;3.65;;;27.30;45.70;;;;;;5029849;28;20052;-80
2023/09/29 11:21:05;;;;;;;9.77;3.90;;;27.20;44.40;;;;;;5029533;28;20068;-83
2023/09/29 11:23:43;;;;;;;12.45;3.83;;;27.20;44.40;;;;;;5027565;28;20068;-83
2023/09/29 11:26:10;;;;;;;15.30;4.50;;;27.10;44.70;;;;;;5027506;28;20025;-80
2023/09/29 11:28:43;;;;;;;11.18;3.50;;;27.00;44.40;;;;;;5027949;28;20021;-80
2023/09/29 11:31:12;;;;;;;17.10;3.72;;;26.80;44.10;;;;;;5029617;28;20033;-80
2023/09/29 11:33:45;;;;;;;10.68;3.80;;;26.80;45.20;;;;;;5029929;28;20038;-81
2023/09/29 11:36:23;;;;;;;8.75;3.33;;;26.80;45.80;;;;;;5028182;28;20765;-80
2023/09/29 11:38:52;;;;;;;10.05;3.65;;;26.90;45.30;;;;;;5029503;28;20027;-81
2023/09/29 11:41:17;;;;;;;10.73;2.70;;;27.00;45.30;;;;;;5028527;28;20035;-81
2023/09/29 11:43:45;;;;;;;7.90;2.92;;;27.00;44.50;;;;;;5029156;28;20029;-81
2023/09/29 11:46:14;;;;;;;13.65;2.85;;;27.00;43.60;;;;;;5028345;28;20040;-80
2023/09/29 11:48:40;;;;;;;8.00;3.10;;;27.10;43.80;;;;;;5029247;28;20029;-81
2023/09/29 11:51:08;;;;;;;5.43;2.72;;;27.10;42.50;;;;;;5029164;28;20035;-81
2023/09/29 11:53:34;;;;;;;21.95;3.10;;;27.10;40.80;;;;;;5028446;28;20064;-81
2023/09/29 11:56:00;;;;;;;14.82;3.38;;;27.00;40.90;;;;;;5029534;28;20033;-81
2023/09/29 11:58:26;;;;;;;12.60;3.78;;;26.80;41.70;;;;;;5029958;28;20026;-81
2023/09/29 12:00:52;;;;;;;12.75;3.15;;;26.60;41.80;;;;;;5029381;28;20056;-82
2023/09/29 12:03:21;;;;;;;6.30;3.10;;;26.70;42.10;;;;;;5028345;28;20042;-82
2023/09/29 12:05:49;;;;;;;11.98;3.15;;;26.70;41.70;;;;;;5028012;28;20064;-81
2023/09/29 12:08:15;;;;;;;11.98;3.15;;;26.70;43.70;;;;;;5029418;28;20112;-81
2023/09/29 12:10:41;;;;;;;7.82;2.75;;;26.70;42.70;;;;;;5027969;28;20455;-81
2023/09/29 12:13:07;;;;;;;6.47;3.35;;;26.70;42.40;;;;;;5028206;28;20550;-80
2023/09/29 12:15:33;;;;;;;8.32;3.13;;;26.70;42.60;;;;;;5029522;28;20025;-81
2023/09/29 12:18:00;;;;;;;7.90;2.92;;;26.70;42.90;;;;;;5028262;28;20049;-82
2023/09/29 12:20:27;;;;;;;16.58;3.47;;;26.90;42.20;;;;;;5029589;28;20059;-82
2023/09/29 12:22:55;;;;;;;11.75;3.25;;;26.90;42.10;;;;;;5027987;28;20032;-81
2023/09/29 12:25:21;;;;;;;12.90;3.22;;;26.90;42.30;;;;;;5028116;28;20049;-80
2023/09/29 12:27:50;;;;;;;6.75;2.83;;;26.90;43.10;;;;;;5029897;28;20406;-80
2023/09/29 12:30:17;;;;;;;13.60;3.40;;;27.00;43.50;;;;;;5032756;28;20029;-80
2023/09/29 12:32:44;;;;;;;11.63;3.10;;;27.10;42.60;;;;;;5031668;28;20040;-81
2023/09/29 12:35:14;;;;;;;6.10;2.50;;;27.20;41.30;;;;;;5031259;28;20029;-80
2023/09/29 12:37:42;;;;;;;6.90;2.95;;;27.10;40.40;;;;;;5031370;28;20383;-81
2023/09/29 12:40:11;;;;;;;10.52;3.20;;;27.20;41.50;;;;;;5035820;28;20041;-81
2023/09/29 12:42:40;;;;;;;8.27;2.95;;;27.20;41.60;;;;;;5041185;28;20048;-80
2023/09/29 12:45:08;;;;;;;8.00;2.90;;;27.20;40.60;;;;;;5047899;28;20051;-81
2023/09/29 12:47:34;;;;;;;5.78;3.20;;;27.20;41.40;;;;;;5049865;28;20387;-82